sensor_id;sensor_type;location;lat;lon;timestamp;temperature;humidity
12315;DHT22;23886;46.614;14.276;2023-01-20T00:01:31;0.00;99.90
12315;DHT22;23886;46.614;14.276;2023-01-20T00:03:59;-0.10;99.90
12315;DHT22;23886;46.614;14.276;2023-01-20T00:06:26;0.00;99.90
12315;DHT22;23886;46.614;14.276;2023-01-20T00:08:54;0.00;99.90
12315;DHT22;23886;46.614;14.276;2023-01-20T00:11:22;0.00;99.90
12315;DHT22;23886;46.614;14.276;2023-01-20T00:13:53;0.00;99.90
12315;DHT22;23886;46.614;14.276;2023-01-20T00:16:20;-0.10;99.90
12315;DHT22;23886;46.614;14.276;2023-01-20T00:18:49;-0.10;99.90
12315;DHT22;23886;46.614;14.276;2023-01-20T00:21:16;-0.10;99.90
12315;DHT22;23886;46.614;14.276;2023-01-20T00:23:44;-0.10;99.90
12315;DHT22;23886;46.614;14.276;2023-01-20T00:26:13;-0.10;99.90
12315;DHT22;23886;46.614;14.276;2023-01-20T00:28:41;-0.10;99.90
12315;DHT22;23886;46.614;14.276;2023-01-20T00:31:13;-0.10;99.90
12315;DHT22;23886;46.614;14.276;2023-01-20T00:33:41;0.00;99.90
12315;DHT22;23886;46.614;14.276;2023-01-20T00:36:10;-0.10;99.90
12315;DHT22;23886;46.614;14.276;2023-01-20T00:38:38;-0.10;99.90
12315;DHT22;23886;46.614;14.276;2023-01-20T00:41:05;0.00;99.90
12315;DHT22;23886;46.614;14.276;2023-01-20T00:43:32;0.00;99.90
12315;DHT22;23886;46.614;14.276;2023-01-20T00:46:00;-0.10;99.90
12315;DHT22;23886;46.614;14.276;2023-01-20T00:48:27;-0.10;99.90
12315;DHT22;23886;46.614;14.276;2023-01-20T00:50:54;-0.20;99.90
12315;DHT22;23886;46.614;14.276;2023-01-20T00:53:22;-0.10;99.90
12315;DHT22;23886;46.614;14.276;2023-01-20T00:55:49;-0.10;99.90
12315;DHT22;23886;46.614;14.276;2023-01-20T00:58:17;-0.10;99.90
12315;DHT22;23886;46.614;14.276;2023-01-20T01:00:45;-0.10;99.90
12315;DHT22;23886;46.614;14.276;2023-01-20T01:03:13;0.00;99.90
12315;DHT22;23886;46.614;14.276;2023-01-20T01:05:40;-0.10;99.90
12315;DHT22;23886;46.614;14.276;2023-01-20T01:08:08;0.00;99.90
12315;DHT22;23886;46.614;14.276;2023-01-20T01:10:37;-0.10;99.90
12315;DHT22;23886;46.614;14.276;2023-01-20T01:13:05;-0.10;99.90
12315;DHT22;23886;46.614;14.276;2023-01-20T01:15:32;-0.20;99.90
12315;DHT22;23886;46.614;14.276;2023-01-20T01:17:59;-0.20;99.90
12315;DHT22;23886;46.614;14.276;2023-01-20T01:20:27;-0.20;99.90
12315;DHT22;23886;46.614;14.276;2023-01-20T01:22:54;-0.20;99.90
12315;DHT22;23886;46.614;14.276;2023-01-20T01:25:21;-0.20;99.90
12315;DHT22;23886;46.614;14.276;2023-01-20T01:27:49;-0.20;99.90
12315;DHT22;23886;46.614;14.276;2023-01-20T01:30:16;-0.10;99.90
12315;DHT22;23886;46.614;14.276;2023-01-20T01:32:43;-0.10;99.90
12315;DHT22;23886;46.614;14.276;2023-01-20T01:35:10;-0.10;99.90
12315;DHT22;23886;46.614;14.276;2023-01-20T01:37:37;-0.10;99.90
12315;DHT22;23886;46.614;14.276;2023-01-20T01:40:06;0.00;99.90
12315;DHT22;23886;46.614;14.276;2023-01-20T01:42:33;0.00;99.90
12315;DHT22;23886;46.614;14.276;2023-01-20T01:45:26;0.00;99.90
12315;DHT22;23886;46.614;14.276;2023-01-20T01:47:58;0.00;99.90
12315;DHT22;23886;46.614;14.276;2023-01-20T01:50:31;0.00;99.90
12315;DHT22;23886;46.614;14.276;2023-01-20T01:52:59;-0.10;99.90
12315;DHT22;23886;46.614;14.276;2023-01-20T01:55:28;-0.10;99.90
12315;DHT22;23886;46.614;14.276;2023-01-20T01:57:57;0.00;99.90
12315;DHT22;23886;46.614;14.276;2023-01-20T02:00:26;0.00;99.90
12315;DHT22;23886;46.614;14.276;2023-01-20T02:02:54;-0.10;99.90
12315;DHT22;23886;46.614;14.276;2023-01-20T02:05:23;0.00;99.90
12315;DHT22;23886;46.614;14.276;2023-01-20T02:07:51;0.00;99.90
12315;DHT22;23886;46.614;14.276;2023-01-20T02:10:18;0.00;99.90
12315;DHT22;23886;46.614;14.276;2023-01-20T02:12:47;-0.10;99.90
12315;DHT22;23886;46.614;14.276;2023-01-20T02:15:17;-0.10;99.90
12315;DHT22;23886;46.614;14.276;2023-01-20T02:17:58;-0.10;99.90
12315;DHT22;23886;46.614;14.276;2023-01-20T02:20:54;-0.10;99.90
12315;DHT22;23886;46.614;14.276;2023-01-20T02:23:42;-0.10;99.90
12315;DHT22;23886;46.614;14.276;2023-01-20T02:26:33;-0.20;99.90
12315;DHT22;23886;46.614;14.276;2023-01-20T02:32:31;-0.20;99.90
12315;DHT22;23886;46.614;14.276;2023-01-20T02:35:07;-0.30;99.90
12315;DHT22;23886;46.614;14.276;2023-01-20T02:37:44;-0.20;99.90
12315;DHT22;23886;46.614;14.276;2023-01-20T02:40:21;-0.30;99.90
12315;DHT22;23886;46.614;14.276;2023-01-20T02:42:56;-0.30;99.90
12315;DHT22;23886;46.614;14.276;2023-01-20T02:45:33;-0.30;99.90
12315;DHT22;23886;46.614;14.276;2023-01-20T02:48:08;-0.30;99.90
12315;DHT22;23886;46.614;14.276;2023-01-20T02:50:41;-0.30;99.90
12315;DHT22;23886;46.614;14.276;2023-01-20T02:53:11;-0.20;99.90
12315;DHT22;23886;46.614;14.276;2023-01-20T02:55:42;-0.30;99.90
12315;DHT22;23886;46.614;14.276;2023-01-20T02:58:14;-0.30;99.90
12315;DHT22;23886;46.614;14.276;2023-01-20T03:00:45;-0.20;99.90
12315;DHT22;23886;46.614;14.276;2023-01-20T03:03:18;-0.20;99.90
12315;DHT22;23886;46.614;14.276;2023-01-20T03:05:51;-0.20;99.90
12315;DHT22;23886;46.614;14.276;2023-01-20T03:08:20;-0.20;99.90
12315;DHT22;23886;46.614;14.276;2023-01-20T03:10:49;-0.20;99.90
12315;DHT22;23886;46.614;14.276;2023-01-20T03:13:21;-0.20;99.90
12315;DHT22;23886;46.614;14.276;2023-01-20T03:15:55;-0.20;99.90
12315;DHT22;23886;46.614;14.276;2023-01-20T03:18:25;-0.20;99.90
12315;DHT22;23886;46.614;14.276;2023-01-20T03:20:54;-0.20;99.90
12315;DHT22;23886;46.614;14.276;2023-01-20T03:23:21;-0.10;99.90
12315;DHT22;23886;46.614;14.276;2023-01-20T03:25:49;0.00;99.90
12315;DHT22;23886;46.614;14.276;2023-01-20T03:28:16;0.00;99.90
12315;DHT22;23886;46.614;14.276;2023-01-20T03:30:43;-0.10;99.90
12315;DHT22;23886;46.614;14.276;2023-01-20T03:33:11;-0.20;99.90
12315;DHT22;23886;46.614;14.276;2023-01-20T03:35:41;-0.20;99.90
12315;DHT22;23886;46.614;14.276;2023-01-20T03:38:09;0.00;99.90
12315;DHT22;23886;46.614;14.276;2023-01-20T03:40:40;0.00;99.90
12315;DHT22;23886;46.614;14.276;2023-01-20T03:43:13;-0.10;99.90
12315;DHT22;23886;46.614;14.276;2023-01-20T03:45:48;-0.10;99.90
12315;DHT22;23886;46.614;14.276;2023-01-20T03:48:24;-0.10;99.90
12315;DHT22;23886;46.614;14.276;2023-01-20T03:50:56;-0.20;99.90
12315;DHT22;23886;46.614;14.276;2023-01-20T03:53:30;-0.20;99.90
12315;DHT22;23886;46.614;14.276;2023-01-20T03:56:02;-0.30;99.90
12315;DHT22;23886;46.614;14.276;2023-01-20T03:58:33;-0.30;99.90
12315;DHT22;23886;46.614;14.276;2023-01-20T04:01:04;-0.40;99.90
12315;DHT22;23886;46.614;14.276;2023-01-20T04:03:35;-0.40;99.90
12315;DHT22;23886;46.614;14.276;2023-01-20T04:06:07;-0.40;99.90
12315;DHT22;23886;46.614;14.276;2023-01-20T04:08:38;-0.50;99.90
12315;DHT22;23886;46.614;14.276;2023-01-20T04:11:07;-0.50;99.90
12315;DHT22;23886;46.614;14.276;2023-01-20T04:13:34;-0.50;99.90
12315;DHT22;23886;46.614;14.276;2023-01-20T04:16:02;-0.50;99.90
12315;DHT22;23886;46.614;14.276;2023-01-20T04:18:30;-0.50;99.90
12315;DHT22;23886;46.614;14.276;2023-01-20T04:20:59;-0.50;99.90
12315;DHT22;23886;46.614;14.276;2023-01-20T04:23:31;-0.50;99.90
12315;DHT22;23886;46.614;14.276;2023-01-20T04:25:59;-0.60;99.90
12315;DHT22;23886;46.614;14.276;2023-01-20T04:28:26;-0.50;99.90
12315;DHT22;23886;46.614;14.276;2023-01-20T04:30:53;-0.50;99.90
12315;DHT22;23886;46.614;14.276;2023-01-20T04:33:20;-0.50;99.90
12315;DHT22;23886;46.614;14.276;2023-01-20T04:35:47;-0.40;99.90
12315;DHT22;23886;46.614;14.276;2023-01-20T04:38:14;-0.50;99.90
12315;DHT22;23886;46.614;14.276;2023-01-20T04:40:42;-0.40;99.90
12315;DHT22;23886;46.614;14.276;2023-01-20T04:43:09;-0.40;99.90
12315;DHT22;23886;46.614;14.276;2023-01-20T04:45:37;-0.30;99.90
12315;DHT22;23886;46.614;14.276;2023-01-20T04:48:05;-0.30;99.90
12315;DHT22;23886;46.614;14.276;2023-01-20T04:50:36;-0.40;99.90
12315;DHT22;23886;46.614;14.276;2023-01-20T04:53:03;-0.40;99.90
12315;DHT22;23886;46.614;14.276;2023-01-20T04:55:31;-0.40;99.90
12315;DHT22;23886;46.614;14.276;2023-01-20T04:57:59;-0.30;99.90
12315;DHT22;23886;46.614;14.276;2023-01-20T05:00:26;-0.30;99.90
12315;DHT22;23886;46.614;14.276;2023-01-20T05:02:55;-0.40;99.90
12315;DHT22;23886;46.614;14.276;2023-01-20T05:05:22;-0.40;99.90
12315;DHT22;23886;46.614;14.276;2023-01-20T05:07:51;-0.50;99.90
12315;DHT22;23886;46.614;14.276;2023-01-20T05:10:19;-0.50;99.90
12315;DHT22;23886;46.614;14.276;2023-01-20T05:12:46;-0.30;99.90
12315;DHT22;23886;46.614;14.276;2023-01-20T05:15:14;-0.40;99.90
12315;DHT22;23886;46.614;14.276;2023-01-20T05:17:41;-0.40;99.90
12315;DHT22;23886;46.614;14.276;2023-01-20T05:20:09;-0.40;99.90
12315;DHT22;23886;46.614;14.276;2023-01-20T05:22:36;-0.50;99.90
12315;DHT22;23886;46.614;14.276;2023-01-20T05:25:05;-0.60;99.90
12315;DHT22;23886;46.614;14.276;2023-01-20T05:27:33;-0.60;99.90
12315;DHT22;23886;46.614;14.276;2023-01-20T05:30:00;-0.60;99.90
12315;DHT22;23886;46.614;14.276;2023-01-20T05:32:29;-0.60;99.90
12315;DHT22;23886;46.614;14.276;2023-01-20T05:34:56;-0.50;99.90
12315;DHT22;23886;46.614;14.276;2023-01-20T05:37:22;-0.40;99.90
12315;DHT22;23886;46.614;14.276;2023-01-20T05:39:49;-0.40;99.90
12315;DHT22;23886;46.614;14.276;2023-01-20T05:42:16;-0.40;99.90
12315;DHT22;23886;46.614;14.276;2023-01-20T05:44:43;-0.50;99.90
12315;DHT22;23886;46.614;14.276;2023-01-20T05:47:10;-0.60;99.90
12315;DHT22;23886;46.614;14.276;2023-01-20T05:49:39;-0.60;99.90
12315;DHT22;23886;46.614;14.276;2023-01-20T05:52:06;-0.60;99.90
12315;DHT22;23886;46.614;14.276;2023-01-20T05:54:33;-0.60;99.90
12315;DHT22;23886;46.614;14.276;2023-01-20T05:57:00;-0.60;99.90
12315;DHT22;23886;46.614;14.276;2023-01-20T05:59:28;-0.70;99.90
12315;DHT22;23886;46.614;14.276;2023-01-20T06:01:55;-0.70;99.90
12315;DHT22;23886;46.614;14.276;2023-01-20T06:04:22;-0.70;99.90
12315;DHT22;23886;46.614;14.276;2023-01-20T06:06:51;-0.70;99.90
12315;DHT22;23886;46.614;14.276;2023-01-20T06:09:18;-0.80;99.90
12315;DHT22;23886;46.614;14.276;2023-01-20T06:11:45;-0.80;99.90
12315;DHT22;23886;46.614;14.276;2023-01-20T06:14:12;-0.80;99.90
12315;DHT22;23886;46.614;14.276;2023-01-20T06:16:40;-0.80;99.90
12315;DHT22;23886;46.614;14.276;2023-01-20T06:19:07;-0.80;99.90
12315;DHT22;23886;46.614;14.276;2023-01-20T06:21:34;-0.90;99.90
12315;DHT22;23886;46.614;14.276;2023-01-20T06:24:02;-0.80;99.90
12315;DHT22;23886;46.614;14.276;2023-01-20T06:26:29;-0.80;99.90
12315;DHT22;23886;46.614;14.276;2023-01-20T06:28:57;-0.80;99.90
12315;DHT22;23886;46.614;14.276;2023-01-20T06:31:25;-0.80;99.90
12315;DHT22;23886;46.614;14.276;2023-01-20T06:33:53;-0.80;99.90
12315;DHT22;23886;46.614;14.276;2023-01-20T06:36:20;-0.90;99.90
12315;DHT22;23886;46.614;14.276;2023-01-20T06:38:47;-0.90;99.90
12315;DHT22;23886;46.614;14.276;2023-01-20T06:41:18;-0.90;99.90
12315;DHT22;23886;46.614;14.276;2023-01-20T06:43:46;-0.90;99.90
12315;DHT22;23886;46.614;14.276;2023-01-20T06:46:15;-0.90;99.90
12315;DHT22;23886;46.614;14.276;2023-01-20T06:48:43;-0.90;99.90
12315;DHT22;23886;46.614;14.276;2023-01-20T06:51:12;-0.90;99.90
12315;DHT22;23886;46.614;14.276;2023-01-20T06:53:40;-0.90;99.90
12315;DHT22;23886;46.614;14.276;2023-01-20T06:56:09;-0.90;99.90
12315;DHT22;23886;46.614;14.276;2023-01-20T06:58:38;-0.80;99.90
12315;DHT22;23886;46.614;14.276;2023-01-20T07:01:07;-0.80;99.90
12315;DHT22;23886;46.614;14.276;2023-01-20T07:03:34;-0.70;99.90
12315;DHT22;23886;46.614;14.276;2023-01-20T07:06:02;-0.70;99.90
12315;DHT22;23886;46.614;14.276;2023-01-20T07:08:30;-0.70;99.90
12315;DHT22;23886;46.614;14.276;2023-01-20T07:10:57;-0.60;99.90
12315;DHT22;23886;46.614;14.276;2023-01-20T07:13:24;-0.80;99.90
12315;DHT22;23886;46.614;14.276;2023-01-20T07:15:53;-0.80;99.90
12315;DHT22;23886;46.614;14.276;2023-01-20T07:18:20;-0.80;99.90
12315;DHT22;23886;46.614;14.276;2023-01-20T07:20:51;-0.80;99.90
12315;DHT22;23886;46.614;14.276;2023-01-20T07:23:18;-0.90;99.90
12315;DHT22;23886;46.614;14.276;2023-01-20T07:25:45;-0.80;99.90
12315;DHT22;23886;46.614;14.276;2023-01-20T07:28:12;-0.90;99.90
12315;DHT22;23886;46.614;14.276;2023-01-20T07:30:39;-0.70;99.90
12315;DHT22;23886;46.614;14.276;2023-01-20T07:33:07;-0.70;99.90
12315;DHT22;23886;46.614;14.276;2023-01-20T07:35:34;-0.70;99.90
12315;DHT22;23886;46.614;14.276;2023-01-20T07:38:01;-0.70;99.90
12315;DHT22;23886;46.614;14.276;2023-01-20T07:40:29;-0.60;99.90
12315;DHT22;23886;46.614;14.276;2023-01-20T07:42:56;-0.60;99.90
12315;DHT22;23886;46.614;14.276;2023-01-20T07:45:22;-0.50;99.90
12315;DHT22;23886;46.614;14.276;2023-01-20T07:47:49;-0.50;99.90
12315;DHT22;23886;46.614;14.276;2023-01-20T07:50:18;-0.40;99.90
12315;DHT22;23886;46.614;14.276;2023-01-20T07:52:45;-0.40;99.90
12315;DHT22;23886;46.614;14.276;2023-01-20T07:55:12;-0.40;99.90
12315;DHT22;23886;46.614;14.276;2023-01-20T07:57:39;-0.50;99.90
12315;DHT22;23886;46.614;14.276;2023-01-20T08:00:07;-0.50;99.90
12315;DHT22;23886;46.614;14.276;2023-01-20T08:02:36;-0.60;99.90
12315;DHT22;23886;46.614;14.276;2023-01-20T08:05:03;-0.60;99.90
12315;DHT22;23886;46.614;14.276;2023-01-20T08:07:32;-0.50;99.90
12315;DHT22;23886;46.614;14.276;2023-01-20T08:09:59;-0.50;99.90
12315;DHT22;23886;46.614;14.276;2023-01-20T08:12:27;-0.50;99.90
12315;DHT22;23886;46.614;14.276;2023-01-20T08:14:54;-0.40;99.90
12315;DHT22;23886;46.614;14.276;2023-01-20T08:17:21;-0.50;99.90
12315;DHT22;23886;46.614;14.276;2023-01-20T08:19:48;-0.50;99.90
12315;DHT22;23886;46.614;14.276;2023-01-20T08:22:15;-0.40;99.90
12315;DHT22;23886;46.614;14.276;2023-01-20T08:24:44;-0.50;99.90
12315;DHT22;23886;46.614;14.276;2023-01-20T08:27:11;-0.50;99.90
12315;DHT22;23886;46.614;14.276;2023-01-20T08:29:38;-0.40;99.90
12315;DHT22;23886;46.614;14.276;2023-01-20T08:32:05;-0.40;99.90
12315;DHT22;23886;46.614;14.276;2023-01-20T08:34:33;-0.50;99.90
12315;DHT22;23886;46.614;14.276;2023-01-20T08:37:00;-0.50;99.90
12315;DHT22;23886;46.614;14.276;2023-01-20T08:39:26;-0.50;99.90
12315;DHT22;23886;46.614;14.276;2023-01-20T08:41:55;-0.50;99.90
12315;DHT22;23886;46.614;14.276;2023-01-20T08:44:22;-0.50;99.90
12315;DHT22;23886;46.614;14.276;2023-01-20T08:46:49;-0.40;99.90
12315;DHT22;23886;46.614;14.276;2023-01-20T08:49:17;-0.40;99.90
12315;DHT22;23886;46.614;14.276;2023-01-20T08:51:46;-0.30;99.90
12315;DHT22;23886;46.614;14.276;2023-01-20T08:54:13;-0.40;99.90
12315;DHT22;23886;46.614;14.276;2023-01-20T08:56:40;-0.40;99.90
12315;DHT22;23886;46.614;14.276;2023-01-20T08:59:09;-0.30;99.90
12315;DHT22;23886;46.614;14.276;2023-01-20T09:01:36;-0.20;99.90
12315;DHT22;23886;46.614;14.276;2023-01-20T09:04:04;-0.10;99.90
12315;DHT22;23886;46.614;14.276;2023-01-20T09:06:37;-0.10;99.90
12315;DHT22;23886;46.614;14.276;2023-01-20T09:09:04;0.00;99.90
12315;DHT22;23886;46.614;14.276;2023-01-20T09:11:31;0.00;99.90
12315;DHT22;23886;46.614;14.276;2023-01-20T09:13:58;0.00;99.90
12315;DHT22;23886;46.614;14.276;2023-01-20T09:16:27;0.10;99.90
12315;DHT22;23886;46.614;14.276;2023-01-20T09:18:54;0.10;99.90
12315;DHT22;23886;46.614;14.276;2023-01-20T09:21:21;0.20;99.90
12315;DHT22;23886;46.614;14.276;2023-01-20T09:23:47;0.30;99.90
12315;DHT22;23886;46.614;14.276;2023-01-20T09:26:15;0.10;99.90
12315;DHT22;23886;46.614;14.276;2023-01-20T09:28:41;0.10;99.90
12315;DHT22;23886;46.614;14.276;2023-01-20T09:31:11;0.10;99.90
12315;DHT22;23886;46.614;14.276;2023-01-20T09:33:40;0.10;99.90
12315;DHT22;23886;46.614;14.276;2023-01-20T09:36:09;0.10;99.90
12315;DHT22;23886;46.614;14.276;2023-01-20T09:38:36;0.10;99.90
12315;DHT22;23886;46.614;14.276;2023-01-20T09:41:26;0.10;99.90
12315;DHT22;23886;46.614;14.276;2023-01-20T09:44:42;0.10;99.90
12315;DHT22;23886;46.614;14.276;2023-01-20T09:47:21;0.20;99.90
12315;DHT22;23886;46.614;14.276;2023-01-20T09:50:17;0.30;99.90
12315;DHT22;23886;46.614;14.276;2023-01-20T09:53:07;0.30;99.90
12315;DHT22;23886;46.614;14.276;2023-01-20T09:55:44;0.20;99.90
12315;DHT22;23886;46.614;14.276;2023-01-20T09:58:18;0.10;99.90
12315;DHT22;23886;46.614;14.276;2023-01-20T10:00:50;0.10;99.90
12315;DHT22;23886;46.614;14.276;2023-01-20T10:03:23;0.10;99.90
12315;DHT22;23886;46.614;14.276;2023-01-20T10:05:57;0.10;99.90
12315;DHT22;23886;46.614;14.276;2023-01-20T10:08:30;0.20;99.90
12315;DHT22;23886;46.614;14.276;2023-01-20T10:11:02;0.20;99.90
12315;DHT22;23886;46.614;14.276;2023-01-20T10:13:35;0.20;99.90
12315;DHT22;23886;46.614;14.276;2023-01-20T10:16:07;0.20;99.90
12315;DHT22;23886;46.614;14.276;2023-01-20T10:18:39;0.20;99.90
12315;DHT22;23886;46.614;14.276;2023-01-20T10:21:14;0.20;99.90
12315;DHT22;23886;46.614;14.276;2023-01-20T10:23:47;0.10;99.90
12315;DHT22;23886;46.614;14.276;2023-01-20T10:26:17;0.20;99.90
12315;DHT22;23886;46.614;14.276;2023-01-20T10:28:51;0.20;99.90
12315;DHT22;23886;46.614;14.276;2023-01-20T10:31:24;0.10;99.90
12315;DHT22;23886;46.614;14.276;2023-01-20T10:33:54;0.10;99.90
12315;DHT22;23886;46.614;14.276;2023-01-20T10:36:27;0.10;99.90
12315;DHT22;23886;46.614;14.276;2023-01-20T10:38:58;0.10;99.90
12315;DHT22;23886;46.614;14.276;2023-01-20T10:41:34;0.10;99.90
12315;DHT22;23886;46.614;14.276;2023-01-20T10:44:09;0.10;99.90
12315;DHT22;23886;46.614;14.276;2023-01-20T10:46:55;0.20;99.90
12315;DHT22;23886;46.614;14.276;2023-01-20T10:49:43;0.10;99.90
12315;DHT22;23886;46.614;14.276;2023-01-20T10:52:26;0.20;99.90
12315;DHT22;23886;46.614;14.276;2023-01-20T10:55:03;0.20;99.90
12315;DHT22;23886;46.614;14.276;2023-01-20T10:57:33;0.20;99.90
12315;DHT22;23886;46.614;14.276;2023-01-20T11:00:03;0.10;99.90
12315;DHT22;23886;46.614;14.276;2023-01-20T11:02:33;0.00;99.90
12315;DHT22;23886;46.614;14.276;2023-01-20T11:05:13;0.10;99.90
12315;DHT22;23886;46.614;14.276;2023-01-20T11:07:44;0.10;99.90
12315;DHT22;23886;46.614;14.276;2023-01-20T11:10:16;0.20;99.90
12315;DHT22;23886;46.614;14.276;2023-01-20T11:12:45;0.20;99.90
12315;DHT22;23886;46.614;14.276;2023-01-20T11:15:18;0.20;99.90
12315;DHT22;23886;46.614;14.276;2023-01-20T11:17:45;0.30;99.90
12315;DHT22;23886;46.614;14.276;2023-01-20T11:20:18;0.20;99.90
12315;DHT22;23886;46.614;14.276;2023-01-20T11:22:48;0.20;99.90
12315;DHT22;23886;46.614;14.276;2023-01-20T11:25:23;0.30;99.90
12315;DHT22;23886;46.614;14.276;2023-01-20T11:27:51;0.30;99.90
12315;DHT22;23886;46.614;14.276;2023-01-20T11:30:23;0.30;99.90
12315;DHT22;23886;46.614;14.276;2023-01-20T11:33:07;0.30;99.90
12315;DHT22;23886;46.614;14.276;2023-01-20T11:35:35;0.20;99.90
12315;DHT22;23886;46.614;14.276;2023-01-20T11:38:22;0.20;99.90
12315;DHT22;23886;46.614;14.276;2023-01-20T11:40:51;0.10;99.90
12315;DHT22;23886;46.614;14.276;2023-01-20T11:43:30;0.10;99.90
12315;DHT22;23886;46.614;14.276;2023-01-20T11:46:22;0.10;99.90
12315;DHT22;23886;46.614;14.276;2023-01-20T11:48:50;0.10;99.90
12315;DHT22;23886;46.614;14.276;2023-01-20T11:51:31;0.10;99.90
12315;DHT22;23886;46.614;14.276;2023-01-20T11:54:10;0.10;99.90
12315;DHT22;23886;46.614;14.276;2023-01-20T11:56:39;0.20;99.90
12315;DHT22;23886;46.614;14.276;2023-01-20T11:59:18;0.10;99.90
12315;DHT22;23886;46.614;14.276;2023-01-20T12:01:50;0.20;99.90
12315;DHT22;23886;46.614;14.276;2023-01-20T12:07:12;0.10;99.90
12315;DHT22;23886;46.614;14.276;2023-01-20T12:09:44;0.30;99.90
12315;DHT22;23886;46.614;14.276;2023-01-20T12:12:19;0.20;99.90
12315;DHT22;23886;46.614;14.276;2023-01-20T12:14:53;0.20;99.90
12315;DHT22;23886;46.614;14.276;2023-01-20T12:17:35;0.10;99.90
12315;DHT22;23886;46.614;14.276;2023-01-20T12:20:12;0.20;99.90
12315;DHT22;23886;46.614;14.276;2023-01-20T12:22:47;0.20;99.90
12315;DHT22;23886;46.614;14.276;2023-01-20T12:25:22;0.20;99.90
12315;DHT22;23886;46.614;14.276;2023-01-20T12:27:53;0.20;99.90
12315;DHT22;23886;46.614;14.276;2023-01-20T12:30:44;0.10;99.90
12315;DHT22;23886;46.614;14.276;2023-01-20T12:33:20;0.10;99.90
12315;DHT22;23886;46.614;14.276;2023-01-20T12:36:22;0.20;99.90
12315;DHT22;23886;46.614;14.276;2023-01-20T12:39:11;0.20;99.90
12315;DHT22;23886;46.614;14.276;2023-01-20T12:42:06;0.20;99.90
12315;DHT22;23886;46.614;14.276;2023-01-20T12:44:43;0.20;99.90
12315;DHT22;23886;46.614;14.276;2023-01-20T12:47:25;0.10;99.90
12315;DHT22;23886;46.614;14.276;2023-01-20T12:50:08;0.00;99.90
12315;DHT22;23886;46.614;14.276;2023-01-20T12:52:48;0.00;99.90
12315;DHT22;23886;46.614;14.276;2023-01-20T12:55:31;0.00;99.90
12315;DHT22;23886;46.614;14.276;2023-01-20T12:58:11;-0.10;99.90
12315;DHT22;23886;46.614;14.276;2023-01-20T13:00:56;0.00;99.90
12315;DHT22;23886;46.614;14.276;2023-01-20T13:03:58;-0.10;99.90
12315;DHT22;23886;46.614;14.276;2023-01-20T13:07:08;0.00;99.90
12315;DHT22;23886;46.614;14.276;2023-01-20T13:09:51;-0.10;99.90
12315;DHT22;23886;46.614;14.276;2023-01-20T13:12:45;-0.20;99.90
12315;DHT22;23886;46.614;14.276;2023-01-20T13:15:19;0.10;99.90
12315;DHT22;23886;46.614;14.276;2023-01-20T13:17:59;0.10;99.90
12315;DHT22;23886;46.614;14.276;2023-01-20T13:20:29;0.00;99.90
12315;DHT22;23886;46.614;14.276;2023-01-20T13:23:00;0.00;99.90
12315;DHT22;23886;46.614;14.276;2023-01-20T13:25:27;0.00;99.90
12315;DHT22;23886;46.614;14.276;2023-01-20T13:27:56;0.00;99.90
12315;DHT22;23886;46.614;14.276;2023-01-20T13:30:41;0.10;99.90
12315;DHT22;23886;46.614;14.276;2023-01-20T13:33:15;0.00;99.90
12315;DHT22;23886;46.614;14.276;2023-01-20T13:35:47;-0.10;99.90
12315;DHT22;23886;46.614;14.276;2023-01-20T13:38:20;-0.20;99.90
12315;DHT22;23886;46.614;14.276;2023-01-20T13:40:57;-0.10;99.90
12315;DHT22;23886;46.614;14.276;2023-01-20T13:46:45;-0.10;99.90
12315;DHT22;23886;46.614;14.276;2023-01-20T13:49:23;-0.10;99.90
12315;DHT22;23886;46.614;14.276;2023-01-20T13:51:51;0.00;99.90
12315;DHT22;23886;46.614;14.276;2023-01-20T13:54:37;0.00;99.90
12315;DHT22;23886;46.614;14.276;2023-01-20T14:00:15;0.00;99.90
12315;DHT22;23886;46.614;14.276;2023-01-20T14:02:45;-0.10;99.90
12315;DHT22;23886;46.614;14.276;2023-01-20T14:05:23;-0.10;99.90
12315;DHT22;23886;46.614;14.276;2023-01-20T14:07:50;0.00;99.90
12315;DHT22;23886;46.614;14.276;2023-01-20T14:10:18;0.20;99.90
12315;DHT22;23886;46.614;14.276;2023-01-20T14:12:45;0.10;99.90
12315;DHT22;23886;46.614;14.276;2023-01-20T14:15:34;0.00;99.90
12315;DHT22;23886;46.614;14.276;2023-01-20T14:18:03;-0.10;99.90
12315;DHT22;23886;46.614;14.276;2023-01-20T14:20:30;-0.20;99.90
12315;DHT22;23886;46.614;14.276;2023-01-20T14:23:27;-0.10;99.90
12315;DHT22;23886;46.614;14.276;2023-01-20T14:26:05;-0.10;99.90
12315;DHT22;23886;46.614;14.276;2023-01-20T14:28:33;-0.10;99.90
12315;DHT22;23886;46.614;14.276;2023-01-20T14:31:16;-0.10;99.90
12315;DHT22;23886;46.614;14.276;2023-01-20T14:33:48;-0.20;99.90
12315;DHT22;23886;46.614;14.276;2023-01-20T14:36:18;-0.10;99.90
12315;DHT22;23886;46.614;14.276;2023-01-20T14:38:50;-0.20;99.90
12315;DHT22;23886;46.614;14.276;2023-01-20T14:41:26;-0.10;99.90
12315;DHT22;23886;46.614;14.276;2023-01-20T14:43:53;-0.10;99.90
12315;DHT22;23886;46.614;14.276;2023-01-20T14:46:21;-0.10;99.90
12315;DHT22;23886;46.614;14.276;2023-01-20T14:48:50;-0.30;99.90
12315;DHT22;23886;46.614;14.276;2023-01-20T14:51:18;-0.20;99.90
12315;DHT22;23886;46.614;14.276;2023-01-20T14:53:46;-0.30;99.90
12315;DHT22;23886;46.614;14.276;2023-01-20T14:56:18;-0.20;99.90
12315;DHT22;23886;46.614;14.276;2023-01-20T14:58:47;-0.20;99.90
12315;DHT22;23886;46.614;14.276;2023-01-20T15:01:20;-0.20;99.90
12315;DHT22;23886;46.614;14.276;2023-01-20T15:03:55;-0.20;99.90
12315;DHT22;23886;46.614;14.276;2023-01-20T15:06:24;-0.20;99.90
12315;DHT22;23886;46.614;14.276;2023-01-20T15:08:52;-0.30;99.90
12315;DHT22;23886;46.614;14.276;2023-01-20T15:11:24;-0.30;99.90
12315;DHT22;23886;46.614;14.276;2023-01-20T15:14:07;-0.20;99.90
12315;DHT22;23886;46.614;14.276;2023-01-20T15:16:46;-0.20;99.90
12315;DHT22;23886;46.614;14.276;2023-01-20T15:19:29;-0.20;99.90
12315;DHT22;23886;46.614;14.276;2023-01-20T15:22:13;-0.30;99.90
12315;DHT22;23886;46.614;14.276;2023-01-20T15:24:42;-0.30;99.90
12315;DHT22;23886;46.614;14.276;2023-01-20T15:27:24;-0.20;99.90
12315;DHT22;23886;46.614;14.276;2023-01-20T15:30:10;-0.20;99.90
12315;DHT22;23886;46.614;14.276;2023-01-20T15:32:37;-0.20;99.90
12315;DHT22;23886;46.614;14.276;2023-01-20T15:35:10;-0.40;99.90
12315;DHT22;23886;46.614;14.276;2023-01-20T15:37:37;-0.40;99.90
12315;DHT22;23886;46.614;14.276;2023-01-20T15:40:05;-0.40;99.90
12315;DHT22;23886;46.614;14.276;2023-01-20T15:42:32;-0.40;99.90
12315;DHT22;23886;46.614;14.276;2023-01-20T15:44:59;-0.50;99.90
12315;DHT22;23886;46.614;14.276;2023-01-20T15:47:27;-0.50;99.90
12315;DHT22;23886;46.614;14.276;2023-01-20T15:49:55;-0.50;99.90
12315;DHT22;23886;46.614;14.276;2023-01-20T15:52:24;-0.60;99.90
12315;DHT22;23886;46.614;14.276;2023-01-20T15:54:51;-0.60;99.90
12315;DHT22;23886;46.614;14.276;2023-01-20T15:57:18;-0.60;99.90
12315;DHT22;23886;46.614;14.276;2023-01-20T15:59:45;-0.60;99.90